createdAt,value
2022-09-28T00:00:08.716Z,99.10
2022-09-28T00:02:39.269Z,98.90
2022-09-28T00:05:10.194Z,98.90
2022-09-28T00:07:40.820Z,98.80
2022-09-28T00:10:11.681Z,98.70
2022-09-28T00:12:42.487Z,98.70
2022-09-28T00:15:13.280Z,98.60
2022-09-28T00:17:43.832Z,98.60
2022-09-28T00:20:15.286Z,98.50
2022-09-28T00:22:45.699Z,98.40
2022-09-28T00:25:16.153Z,98.30
2022-09-28T00:27:52.002Z,98.50
2022-09-28T00:30:22.409Z,98.40
2022-09-28T00:32:52.929Z,98.20
2022-09-28T00:35:23.211Z,98.20
2022-09-28T00:37:54.269Z,98.60
2022-09-28T00:40:24.721Z,98.90
2022-09-28T00:42:55.317Z,99.00
2022-09-28T00:45:29.270Z,99.10
2022-09-28T00:48:02.742Z,99.00
2022-09-28T00:50:38.634Z,98.90
2022-09-28T00:53:25.275Z,98.70
2022-09-28T00:56:05.701Z,98.80
2022-09-28T00:58:43.290Z,98.80
2022-09-28T01:01:14.669Z,98.70
2022-09-28T01:03:50.105Z,98.70
2022-09-28T01:06:25.610Z,98.50
2022-09-28T01:09:00.471Z,98.30
2022-09-28T01:11:33.323Z,98.10
2022-09-28T01:14:05.432Z,98.20
2022-09-28T01:17:04.050Z,98.20
2022-09-28T01:20:04.636Z,98.10
2022-09-28T01:23:14.987Z,98.20
2022-09-28T01:26:04.788Z,98.00
2022-09-28T01:28:35.666Z,97.90
2022-09-28T01:31:13.504Z,97.70
2022-09-28T01:33:54.422Z,97.70
2022-09-28T01:36:39.531Z,97.70
2022-09-28T01:39:17.662Z,97.70
2022-09-28T01:41:53.586Z,97.60
2022-09-28T01:44:26.043Z,97.60
2022-09-28T01:46:57.040Z,97.30
2022-09-28T01:49:36.282Z,97.30
2022-09-28T01:52:16.717Z,97.10
2022-09-28T01:54:59.178Z,97.00
2022-09-28T01:57:36.964Z,96.60
2022-09-28T02:00:12.711Z,96.40
2022-09-28T02:02:58.306Z,96.20
2022-09-28T02:05:34.872Z,96.10
2022-09-28T02:08:29.146Z,96.10
2022-09-28T02:11:17.590Z,96.10
2022-09-28T02:13:59.407Z,95.80
2022-09-28T02:16:47.147Z,95.40
2022-09-28T02:19:21.814Z,95.40
2022-09-28T02:22:07.987Z,94.80
2022-09-28T02:24:45.456Z,95.60
2022-09-28T02:27:24.175Z,95.20
2022-09-28T02:29:54.582Z,95.10
2022-09-28T02:32:26.531Z,94.80
2022-09-28T02:34:58.215Z,94.90
2022-09-28T02:37:29.912Z,94.80
2022-09-28T02:40:00.340Z,94.80
2022-09-28T02:42:51.746Z,94.60
2022-09-28T02:45:59.802Z,94.50
2022-09-28T02:49:10.516Z,94.70
2022-09-28T02:52:06.342Z,94.40
2022-09-28T02:55:10.218Z,94.60
2022-09-28T02:58:09.083Z,94.90
2022-09-28T03:00:47.733Z,95.00
2022-09-28T03:03:37.353Z,95.10
2022-09-28T03:06:22.769Z,94.70
2022-09-28T03:09:05.472Z,95.10
2022-09-28T03:11:43.312Z,95.40
2022-09-28T03:14:14.789Z,95.20
2022-09-28T03:16:48.828Z,94.20
2022-09-28T03:19:22.052Z,94.00
2022-09-28T03:21:52.311Z,94.10
2022-09-28T03:24:22.696Z,94.00
2022-09-28T03:26:53.356Z,94.60
2022-09-28T03:29:23.998Z,94.30
2022-09-28T03:31:54.497Z,93.20
2022-09-28T03:34:24.996Z,93.20
2022-09-28T03:36:55.323Z,93.40
2022-09-28T03:39:25.811Z,93.80
2022-09-28T03:41:56.170Z,94.20
2022-09-28T03:44:26.591Z,94.50
2022-09-28T03:46:56.883Z,94.10
2022-09-28T03:49:27.403Z,93.70
2022-09-28T03:51:57.691Z,92.90
2022-09-28T03:54:28.151Z,92.70
2022-09-28T03:56:58.701Z,93.20
2022-09-28T03:59:28.993Z,92.90
2022-09-28T04:01:59.969Z,92.70
2022-09-28T04:04:30.277Z,92.90
2022-09-28T04:07:01.126Z,92.80
2022-09-28T04:09:31.543Z,92.40
2022-09-28T04:12:04.317Z,92.20
2022-09-28T04:14:35.083Z,92.10
2022-09-28T04:17:05.616Z,91.70
2022-09-28T04:19:36.121Z,92.30
2022-09-28T04:22:07.034Z,92.30
2022-09-28T04:24:37.447Z,92.20
2022-09-28T04:27:27.297Z,92.40
2022-09-28T04:29:57.590Z,92.20
2022-09-28T04:32:28.155Z,92.60
2022-09-28T04:34:58.480Z,92.70
2022-09-28T04:37:28.918Z,93.20
2022-09-28T04:39:59.558Z,93.60
2022-09-28T04:42:30.063Z,93.20
2022-09-28T04:45:00.878Z,92.80
2022-09-28T04:47:33.073Z,92.50
2022-09-28T04:50:03.391Z,91.50
2022-09-28T04:52:34.100Z,91.60
2022-09-28T04:55:04.580Z,91.50
2022-09-28T04:57:37.786Z,91.80
2022-09-28T05:00:09.177Z,91.40
2022-09-28T05:02:39.899Z,91.50
2022-09-28T05:05:10.677Z,91.00
2022-09-28T05:07:41.357Z,90.10
2022-09-28T05:10:11.823Z,91.20
2022-09-28T05:12:42.415Z,91.40
2022-09-28T05:15:13.861Z,90.30
2022-09-28T05:17:44.394Z,90.10
2022-09-28T05:20:15.200Z,90.80
2022-09-28T05:22:45.672Z,91.10
2022-09-28T05:25:16.060Z,91.30
2022-09-28T05:27:46.681Z,91.10
2022-09-28T05:30:17.803Z,90.80
2022-09-28T05:32:48.317Z,91.00
2022-09-28T05:35:22.923Z,90.40
2022-09-28T05:37:53.380Z,89.80
2022-09-28T05:40:24.053Z,90.30
2022-09-28T05:42:54.438Z,90.50
2022-09-28T05:45:24.729Z,90.10
2022-09-28T05:47:56.116Z,88.80
2022-09-28T05:50:27.157Z,86.70
2022-09-28T05:53:07.014Z,88.00
2022-09-28T05:55:38.761Z,89.10
2022-09-28T05:58:10.626Z,89.00
2022-09-28T06:00:41.015Z,89.30
2022-09-28T06:03:15.231Z,90.00
2022-09-28T06:05:45.720Z,89.70
2022-09-28T06:08:16.757Z,88.90
2022-09-28T06:10:47.303Z,88.00
2022-09-28T06:13:17.971Z,85.60
2022-09-28T06:15:48.462Z,85.70
2022-09-28T06:18:18.862Z,87.70
2022-09-28T06:20:50.500Z,86.90
2022-09-28T06:23:20.953Z,87.90
2022-09-28T06:25:51.377Z,89.10
2022-09-28T06:28:21.797Z,86.50
2022-09-28T06:30:52.316Z,86.90
2022-09-28T06:33:22.894Z,85.90
2022-09-28T06:35:54.222Z,86.60
2022-09-28T06:38:24.668Z,86.80
2022-09-28T06:40:55.097Z,86.10
2022-09-28T06:43:25.624Z,89.00
2022-09-28T06:45:56.984Z,87.40
2022-09-28T06:48:27.558Z,87.80
2022-09-28T06:51:00.488Z,87.40
2022-09-28T06:53:31.865Z,87.00
2022-09-28T06:56:04.606Z,86.20
2022-09-28T06:58:35.069Z,86.70
2022-09-28T07:01:06.277Z,87.40
2022-09-28T07:03:36.946Z,87.90
2022-09-28T07:06:07.374Z,87.60
2022-09-28T07:08:38.077Z,87.60
2022-09-28T07:11:10.260Z,88.20
2022-09-28T07:13:50.439Z,87.40
2022-09-28T07:16:26.519Z,86.60
2022-09-28T07:18:57.593Z,87.10
2022-09-28T07:21:30.429Z,87.90
2022-09-28T07:24:02.037Z,87.60
2022-09-28T07:26:35.373Z,87.80
2022-09-28T07:29:06.003Z,88.00
2022-09-28T07:31:37.266Z,87.80
2022-09-28T07:34:07.716Z,87.80
2022-09-28T07:36:38.621Z,87.30
2022-09-28T07:39:09.268Z,86.80
2022-09-28T07:41:41.778Z,87.40
2022-09-28T07:44:12.628Z,87.50
2022-09-28T07:46:44.083Z,89.00
2022-09-28T07:49:14.912Z,88.40
2022-09-28T07:51:46.810Z,89.20
2022-09-28T07:54:17.280Z,89.70
2022-09-28T07:56:50.483Z,89.50
2022-09-28T07:59:21.410Z,89.90
2022-09-28T08:01:51.816Z,89.50
2022-09-28T08:04:23.283Z,90.40
2022-09-28T08:06:53.733Z,90.10
2022-09-28T08:09:24.478Z,90.30
2022-09-28T08:11:54.801Z,90.00
2022-09-28T08:14:25.925Z,90.30
2022-09-28T08:16:56.654Z,90.10
2022-09-28T08:19:27.365Z,89.40
2022-09-28T08:21:57.868Z,90.40
2022-09-28T08:24:33.302Z,90.20
2022-09-28T08:27:03.659Z,90.10
2022-09-28T08:29:34.390Z,90.70
2022-09-28T08:32:05.298Z,90.90
2022-09-28T08:34:35.917Z,90.30
2022-09-28T08:37:06.987Z,90.90
2022-09-28T08:39:38.006Z,90.30
2022-09-28T08:42:41.836Z,90.80
2022-09-28T08:45:23.263Z,90.60
2022-09-28T08:48:21.380Z,91.10
2022-09-28T08:51:05.477Z,91.20
2022-09-28T08:54:11.081Z,91.00
2022-09-28T08:56:50.065Z,90.80
2022-09-28T08:59:27.292Z,91.20
2022-09-28T09:02:03.196Z,91.20
2022-09-28T09:04:36.412Z,91.20
2022-09-28T09:07:33.138Z,90.60
2022-09-28T09:10:33.010Z,91.30
2022-09-28T09:13:33.018Z,91.00
2022-09-28T09:16:29.035Z,91.00
2022-09-28T09:19:22.562Z,91.30
2022-09-28T09:22:25.884Z,91.20
2022-09-28T09:25:20.302Z,91.40
2022-09-28T09:28:24.004Z,91.80
2022-09-28T09:31:10.855Z,91.70
2022-09-28T09:34:07.540Z,91.40
2022-09-28T09:37:14.979Z,91.70
2022-09-28T09:40:17.844Z,92.00
2022-09-28T09:43:09.486Z,92.60
2022-09-28T09:45:59.221Z,92.40
2022-09-28T09:48:52.894Z,93.00
2022-09-28T09:51:41.493Z,93.10
2022-09-28T09:54:36.415Z,92.90
2022-09-28T09:57:18.251Z,92.80
2022-09-28T09:59:49.728Z,93.10
2022-09-28T10:02:30.252Z,92.70
2022-09-28T10:05:09.565Z,93.00
2022-09-28T10:08:17.709Z,92.50
2022-09-28T10:11:14.935Z,92.60
2022-09-28T10:13:46.682Z,92.70
2022-09-28T10:16:19.055Z,92.80
2022-09-28T10:18:51.653Z,93.00
2022-09-28T10:21:26.318Z,92.80
2022-09-28T10:24:04.605Z,92.50
2022-09-28T10:26:41.676Z,92.70
2022-09-28T10:29:22.828Z,92.70
2022-09-28T10:31:55.450Z,92.60
2022-09-28T10:34:32.085Z,93.10
2022-09-28T10:37:06.813Z,93.30
2022-09-28T10:39:42.254Z,93.40
2022-09-28T10:42:16.441Z,93.40
2022-09-28T10:45:04.286Z,93.20
2022-09-28T10:47:36.214Z,93.30
2022-09-28T10:50:17.168Z,93.20
2022-09-28T10:52:48.952Z,93.60
2022-09-28T10:55:34.424Z,93.30
2022-09-28T10:58:30.395Z,93.50
2022-09-28T11:01:11.594Z,93.60
2022-09-28T11:03:54.637Z,93.70
2022-09-28T11:06:32.734Z,93.90
2022-09-28T11:09:10.615Z,94.00
2022-09-28T11:11:45.018Z,94.30
2022-09-28T11:14:42.746Z,94.10
2022-09-28T11:17:29.567Z,94.20
2022-09-28T11:20:04.175Z,94.40
2022-09-28T11:22:44.366Z,94.20
2022-09-28T11:25:34.158Z,94.30
2022-09-28T11:28:07.732Z,94.50
2022-09-28T11:30:54.998Z,94.50
2022-09-28T11:33:47.645Z,94.60
2022-09-28T11:36:42.210Z,94.90
2022-09-28T11:39:27.858Z,94.60
2022-09-28T11:42:16.534Z,94.80
2022-09-28T11:44:51.871Z,94.90
2022-09-28T11:47:44.671Z,95.20
2022-09-28T11:50:52.963Z,95.30
2022-09-28T11:53:46.554Z,95.40
2022-09-28T11:56:33.277Z,95.40
2022-09-28T11:59:17.293Z,95.20
2022-09-28T12:01:54.174Z,95.10
2022-09-28T12:04:39.039Z,94.70
2022-09-28T12:07:41.031Z,94.60
2022-09-28T12:10:45.644Z,94.60
2022-09-28T12:13:35.333Z,94.60
2022-09-28T12:17:00.437Z,94.40
2022-09-28T12:19:37.945Z,94.30
2022-09-28T12:22:23.873Z,94.00
2022-09-28T12:24:56.993Z,94.50
2022-09-28T12:27:55.855Z,94.60
2022-09-28T12:30:27.980Z,94.80
2022-09-28T12:33:07.571Z,94.80
2022-09-28T12:36:07.185Z,94.90
2022-09-28T12:39:24.028Z,95.00
2022-09-28T12:42:36.046Z,95.10
2022-09-28T12:45:53.157Z,95.20
2022-09-28T12:49:33.112Z,95.30
2022-09-28T12:51:58.003Z,95.20
2022-09-28T12:54:55.386Z,95.50
2022-09-28T12:57:48.033Z,95.40
2022-09-28T13:00:25.370Z,95.40
2022-09-28T13:03:33.351Z,95.40
2022-09-28T13:06:32.124Z,95.70
2022-09-28T13:09:27.784Z,95.70
2022-09-28T13:12:16.602Z,95.80
2022-09-28T13:15:17.756Z,95.90
2022-09-28T13:17:57.373Z,96.00
2022-09-28T13:20:58.676Z,96.10
2022-09-28T13:23:41.890Z,96.10
2022-09-28T13:26:33.876Z,96.10
2022-09-28T13:29:11.133Z,96.40
2022-09-28T13:31:53.486Z,96.40
2022-09-28T13:34:31.443Z,96.50
2022-09-28T13:37:23.807Z,96.50
2022-09-28T13:39:58.523Z,96.50
2022-09-28T13:43:01.631Z,96.40
2022-09-28T13:45:51.484Z,96.40
2022-09-28T13:48:24.395Z,96.40
2022-09-28T13:51:30.427Z,96.40
2022-09-28T13:54:19.170Z,96.30
2022-09-28T13:57:12.109Z,96.40
2022-09-28T14:00:06.085Z,96.50
2022-09-28T14:02:43.558Z,96.30
2022-09-28T14:05:36.402Z,96.40
2022-09-28T14:08:33.138Z,96.70
2022-09-28T14:11:43.177Z,96.70
2022-09-28T14:14:46.787Z,96.70
2022-09-28T14:17:52.617Z,96.80
2022-09-28T14:20:27.043Z,96.90
2022-09-28T14:23:12.416Z,97.10
2022-09-28T14:25:48.952Z,97.00
2022-09-28T14:28:42.030Z,96.90
2022-09-28T14:31:23.894Z,96.80
2022-09-28T14:34:02.096Z,96.90
2022-09-28T14:36:52.270Z,96.90
2022-09-28T14:39:44.158Z,97.00
2022-09-28T14:42:20.119Z,97.00
2022-09-28T14:45:23.939Z,97.10
2022-09-28T14:48:17.276Z,97.20
2022-09-28T14:50:49.448Z,97.20
2022-09-28T14:53:24.663Z,97.10
2022-09-28T14:56:00.286Z,97.00
2022-09-28T14:58:32.072Z,96.90
2022-09-28T15:01:08.674Z,97.00
2022-09-28T15:03:42.061Z,97.10
2022-09-28T15:06:18.547Z,97.20
2022-09-28T15:08:49.163Z,97.20
2022-09-28T15:11:23.840Z,97.20
2022-09-28T15:14:08.118Z,97.10
2022-09-28T15:16:38.788Z,97.20
2022-09-28T15:19:33.005Z,97.10
2022-09-28T15:22:03.467Z,97.10
2022-09-28T15:24:36.727Z,97.20
2022-09-28T15:27:19.077Z,97.20
2022-09-28T15:30:27.725Z,97.40
2022-09-28T15:33:18.932Z,97.60
2022-09-28T15:36:07.713Z,97.60
2022-09-28T15:38:38.751Z,97.50
2022-09-28T15:41:11.906Z,97.60
2022-09-28T15:43:43.499Z,97.80
2022-09-28T15:46:21.767Z,97.90
2022-09-28T15:48:57.492Z,97.80
2022-09-28T15:51:29.546Z,97.80
2022-09-28T15:54:21.278Z,97.90
2022-09-28T15:57:06.816Z,98.00
2022-09-28T15:59:41.573Z,97.90
2022-09-28T16:02:24.667Z,98.00
2022-09-28T16:05:00.781Z,98.10
2022-09-28T16:07:41.206Z,98.20
2022-09-28T16:10:33.296Z,98.30
2022-09-28T16:13:22.533Z,98.30
2022-09-28T16:16:01.871Z,98.20
2022-09-28T16:18:35.797Z,98.50
2022-09-28T16:21:31.338Z,98.30
2022-09-28T16:24:01.748Z,98.30
2022-09-28T16:26:39.378Z,98.30
2022-09-28T16:29:27.521Z,98.40
2022-09-28T16:31:58.172Z,98.50
2022-09-28T16:34:32.210Z,98.40
2022-09-28T16:37:02.802Z,98.30
2022-09-28T16:39:33.016Z,98.20
2022-09-28T16:42:05.675Z,98.20
2022-09-28T16:44:37.821Z,98.30
2022-09-28T16:47:17.961Z,98.40
2022-09-28T16:49:48.274Z,98.40
2022-09-28T16:52:38.091Z,98.30
2022-09-28T16:58:08.796Z,98.50
2022-09-28T17:00:39.222Z,98.50
2022-09-28T17:03:20.477Z,98.50
2022-09-28T17:05:51.810Z,98.60
2022-09-28T17:08:25.040Z,98.60
2022-09-28T17:11:24.105Z,98.60
2022-09-28T17:13:58.781Z,98.60
2022-09-28T17:17:02.369Z,98.60
2022-09-28T17:19:26.896Z,98.70
2022-09-28T17:21:57.364Z,98.70
2022-09-28T17:24:27.891Z,98.70
2022-09-28T17:26:59.136Z,98.60
2022-09-28T17:29:30.122Z,98.50
2022-09-28T17:32:00.482Z,98.60
2022-09-28T17:34:30.887Z,98.40
2022-09-28T17:37:01.980Z,98.50
2022-09-28T17:39:33.788Z,98.40
2022-09-28T17:42:04.152Z,98.40
2022-09-28T17:44:34.473Z,98.30
2022-09-28T17:47:04.849Z,98.30
2022-09-28T17:49:35.275Z,98.40
2022-09-28T17:52:07.493Z,98.40
2022-09-28T17:54:37.830Z,98.40
2022-09-28T17:57:08.117Z,98.30
2022-09-28T17:59:38.551Z,98.20
2022-09-28T18:02:11.944Z,98.50
2022-09-28T18:04:51.727Z,98.30
2022-09-28T18:07:22.364Z,98.30
2022-09-28T18:09:58.938Z,98.40
2022-09-28T18:12:29.590Z,98.50
2022-09-28T18:14:59.947Z,98.50
2022-09-28T18:17:30.235Z,98.30
2022-09-28T18:20:00.567Z,98.40
2022-09-28T18:22:30.990Z,98.10
2022-09-28T18:25:01.328Z,98.00
2022-09-28T18:27:32.579Z,98.00
2022-09-28T18:30:03.139Z,98.00
2022-09-28T18:32:33.487Z,98.00
2022-09-28T18:35:03.818Z,98.00
2022-09-28T18:37:38.422Z,98.00
2022-09-28T18:40:12.208Z,97.90
2022-09-28T18:42:43.376Z,97.80
2022-09-28T18:45:14.479Z,97.90
2022-09-28T18:47:45.386Z,98.00
2022-09-28T18:50:17.458Z,98.20
2022-09-28T18:52:49.413Z,98.00
2022-09-28T18:55:19.923Z,97.80
2022-09-28T18:57:50.626Z,97.90
2022-09-28T19:00:21.105Z,97.90
2022-09-28T19:02:51.966Z,97.90
2022-09-28T19:05:22.313Z,98.00
2022-09-28T19:07:52.643Z,98.00
2022-09-28T19:10:22.945Z,98.00
2022-09-28T19:12:54.196Z,98.00
2022-09-28T19:15:24.837Z,97.90
2022-09-28T19:17:55.286Z,98.00
2022-09-28T19:20:25.526Z,98.00
2022-09-28T19:22:56.047Z,98.00
2022-09-28T19:25:26.386Z,98.00
2022-09-28T19:27:56.800Z,98.40
2022-09-28T19:30:27.875Z,98.10
2022-09-28T19:32:58.602Z,98.10
2022-09-28T19:35:29.030Z,97.90
2022-09-28T19:37:59.552Z,98.20
2022-09-28T19:40:29.890Z,98.00
2022-09-28T19:43:01.904Z,98.10
2022-09-28T19:45:32.832Z,98.10
2022-09-28T19:48:05.295Z,98.10
2022-09-28T19:50:35.653Z,98.00
2022-09-28T19:53:08.809Z,98.00
2022-09-28T19:55:39.297Z,98.10
2022-09-28T19:58:10.084Z,98.30
2022-09-28T20:00:40.639Z,98.30
2022-09-28T20:03:10.997Z,98.40
2022-09-28T20:05:43.454Z,98.50
2022-09-28T20:08:17.005Z,98.50
2022-09-28T20:11:03.222Z,98.50
2022-09-28T20:13:37.053Z,98.50
2022-09-28T20:16:10.062Z,98.50
2022-09-28T20:18:45.614Z,98.50
2022-09-28T20:21:18.128Z,98.40
2022-09-28T20:23:50.030Z,98.30
2022-09-28T20:26:20.880Z,98.10
2022-09-28T20:28:51.290Z,97.90
2022-09-28T20:31:24.725Z,98.40
2022-09-28T20:33:55.582Z,98.20
2022-09-28T20:36:27.581Z,98.10
2022-09-28T20:39:00.589Z,98.10
2022-09-28T20:41:35.934Z,98.00
2022-09-28T20:44:08.019Z,98.10
2022-09-28T20:46:39.302Z,98.10
2022-09-28T20:49:09.816Z,98.10
2022-09-28T20:51:40.134Z,98.10
2022-09-28T20:54:10.648Z,98.10
2022-09-28T20:56:41.306Z,98.20
2022-09-28T20:59:14.649Z,98.40
2022-09-28T21:01:45.235Z,98.70
2022-09-28T21:04:15.830Z,98.70
2022-09-28T21:06:46.271Z,98.60
2022-09-28T21:09:16.662Z,98.60
2022-09-28T21:11:47.100Z,98.60
2022-09-28T21:14:17.478Z,98.60
2022-09-28T21:16:47.823Z,98.30
2022-09-28T21:19:18.111Z,98.30
2022-09-28T21:21:48.404Z,98.30
2022-09-28T21:24:18.874Z,98.40
2022-09-28T21:26:49.357Z,98.40
2022-09-28T21:29:19.771Z,98.30
2022-09-28T21:31:50.665Z,98.30
2022-09-28T21:34:22.574Z,98.40
2022-09-28T21:36:54.595Z,98.50
2022-09-28T21:39:25.117Z,98.50
2022-09-28T21:41:56.025Z,98.70
2022-09-28T21:44:26.336Z,98.70
2022-09-28T21:46:56.875Z,99.00
2022-09-28T21:49:27.308Z,98.80
2022-09-28T21:51:57.688Z,98.80
2022-09-28T21:54:28.063Z,98.90
2022-09-28T21:56:58.476Z,98.80
2022-09-28T21:59:28.800Z,98.90
2022-09-28T22:01:59.297Z,98.90
2022-09-28T22:04:29.593Z,98.90
2022-09-28T22:07:00.002Z,98.90
2022-09-28T22:09:30.493Z,98.80
2022-09-28T22:12:01.208Z,98.90
2022-09-28T22:14:31.616Z,98.90
2022-09-28T22:17:01.990Z,99.00
2022-09-28T22:19:32.658Z,98.90
2022-09-28T22:22:02.975Z,98.80
2022-09-28T22:24:33.343Z,98.60
2022-09-28T22:27:03.698Z,98.70
2022-09-28T22:29:34.048Z,98.70
2022-09-28T22:32:05.200Z,98.60
2022-09-28T22:34:36.009Z,98.70
2022-09-28T22:37:06.886Z,98.60
2022-09-28T22:39:37.991Z,98.70
2022-09-28T22:42:09.335Z,98.70
2022-09-28T22:44:39.857Z,98.70
2022-09-28T22:47:10.208Z,98.50
2022-09-28T22:49:40.579Z,98.40
2022-09-28T22:52:10.878Z,98.50
2022-09-28T22:54:42.542Z,98.60
2022-09-28T22:57:12.902Z,98.80
2022-09-28T22:59:43.206Z,98.70
2022-09-28T23:02:13.780Z,98.70
2022-09-28T23:04:44.086Z,98.80
2022-09-28T23:07:14.599Z,98.50
2022-09-28T23:09:44.936Z,98.40
2022-09-28T23:12:15.370Z,98.30
2022-09-28T23:14:46.022Z,98.30
2022-09-28T23:17:16.525Z,98.20
2022-09-28T23:19:46.898Z,98.20
2022-09-28T23:22:17.520Z,98.40
2022-09-28T23:24:47.895Z,98.30
2022-09-28T23:27:18.250Z,98.40
2022-09-28T23:29:49.658Z,98.40
2022-09-28T23:32:20.289Z,98.50
2022-09-28T23:34:50.667Z,98.50
2022-09-28T23:37:21.052Z,98.50
2022-09-28T23:39:52.247Z,98.50
2022-09-28T23:42:23.045Z,98.50
2022-09-28T23:44:53.365Z,98.40
2022-09-28T23:47:23.912Z,98.30
2022-09-28T23:49:54.416Z,98.40
2022-09-28T23:52:24.818Z,98.40
2022-09-28T23:54:55.297Z,98.40
2022-09-28T23:57:25.608Z,98.50
2022-09-28T23:59:55.962Z,98.60
